Terminal Aerodrome Forecast
Issued by NWS

Home | Current Version | Previous Version | Text Only | Print | Product List | Glossary On
Versions: 1 2 3 4 5 6 7 8 9 10 11 12 13 14 15 16 17 18 19 20 21 22 23 24 25 26 27 28
000
FTUS43 KBIS 290520
TAFMOT
TAF
KMOT 290520Z 2906/3006 00000KT P6SM BKN060 OVC090
     FM290900 18004KT 6SM BR BKN200
     FM291600 19010KT P6SM SCT070
     FM300400 19007KT P6SM BKN110=

USA.gov is the U.S. government's official web portal to all federal, state and local government web resources and services.